Time;durP1;ratioP1;P1;durP2;ratioP2;P2;SDS_P1;SDS_P2;PMS_P1;PMS_P2;Temp;Humidity;BMP_temperature;BMP_pressure;BME280_temperature;BME280_humidity;BME280_pressure;Samples;Min_cycle;Max_cycle;Signal;HPM_P1;HPM_P2
2024/02/29 00:00:39;;;;;;;;;;;1.70;1.00;;;;;;5064183;28;19993;-77
2024/02/29 00:03:08;;;;;;;;;;;1.70;1.00;;;;;;5066738;28;19959;-77
2024/02/29 00:05:48;;;;;;;;;;;1.70;1.00;;;;;;5059662;28;19916;-77
2024/02/29 00:08:14;;;;;;;;;;;1.80;1.00;;;;;;5059243;28;19919;-77
2024/02/29 00:10:40;;;;;;;;;;;1.80;1.00;;;;;;5060416;28;19912;-77
2024/02/29 00:13:06;;;;;;;;;;;1.90;1.00;;;;;;5058697;28;19908;-77
2024/02/29 00:16:06;;;;;;;;;;;2.00;1.00;;;;;;5074124;28;19915;-77
2024/02/29 00:18:36;;;;;;;;;;;2.00;1.00;;;;;;5067178;28;19977;-77
2024/02/29 00:21:06;;;;;;;;;;;2.00;1.00;;;;;;5058455;28;20401;-77
2024/02/29 00:23:32;;;;;;;;;;;2.10;1.00;;;;;;5101166;28;19927;-77
2024/02/29 00:29:07;;;;;;;;;;;2.10;1.00;;;;;;5062006;28;19919;-76
2024/02/29 00:31:41;;;;;;;;;;;2.20;1.00;;;;;;5073836;28;20019;-76
2024/02/29 00:34:18;;;;;;;;;;;2.30;1.00;;;;;;5060970;28;19908;-76
2024/02/29 00:36:48;;;;;;;;;;;2.30;1.00;;;;;;5071292;28;19909;-76
2024/02/29 00:39:18;;;;;;;;;;;2.30;1.00;;;;;;5055893;28;19991;-76
2024/02/29 00:41:48;;;;;;;;;;;2.30;1.00;;;;;;5055465;28;19912;-76
2024/02/29 00:47:17;;;;;;;;;;;2.30;1.00;;;;;;5047563;28;19962;-76
2024/02/29 00:49:42;;;;;;;;;;;2.40;1.00;;;;;;5059205;28;19971;-76
2024/02/29 00:52:08;;;;;;;;;;;2.40;1.00;;;;;;5067287;28;20003;-76
2024/02/29 00:54:34;;;;;;;;;;;2.40;1.00;;;;;;5053937;28;20001;-76
2024/02/29 00:57:12;;;;;;;;;;;2.40;1.00;;;;;;5096404;28;19913;-76
2024/02/29 00:59:48;;;;;;;;;;;2.40;1.00;;;;;;5066902;28;19909;-77
2024/02/29 01:02:18;;;;;;;;;;;2.40;1.00;;;;;;5053807;28;19909;-77
2024/02/29 01:05:00;;;;;;;;;;;2.40;1.00;;;;;;5054834;28;19916;-77
2024/02/29 01:07:26;;;;;;;;;;;2.40;1.00;;;;;;5052909;28;19909;-78
2024/02/29 01:13:18;;;;;;;;;;;2.50;1.00;;;;;;5060540;28;19987;-77
2024/02/29 01:18:47;;;;;;;;;;;2.50;1.00;;;;;;5058173;28;20284;-77
2024/02/29 01:24:18;;;;;;;;;;;2.50;1.00;;;;;;5070054;28;19921;-79
2024/02/29 01:29:47;;;;;;;;;;;2.30;1.00;;;;;;5052038;28;20405;-77
2024/02/29 01:32:30;;;;;;;;;;;2.30;1.00;;;;;;5063263;28;19913;-78
2024/02/29 01:35:07;;;;;;;;;;;2.20;1.00;;;;;;5075925;28;20478;-78
2024/02/29 01:37:42;;;;;;;;;;;2.20;1.00;;;;;;5091127;28;19913;-77
2024/02/29 01:40:18;;;;;;;;;;;2.10;1.00;;;;;;5069249;28;19919;-77
2024/02/29 01:42:50;;;;;;;;;;;2.10;1.00;;;;;;5060203;28;19913;-77
2024/02/29 01:45:42;;;;;;;;;;;2.10;1.00;;;;;;5071029;28;19913;-77
2024/02/29 01:51:11;;;;;;;;;;;1.90;1.00;;;;;;5056754;28;20340;-77
2024/02/29 01:53:48;;;;;;;;;;;1.80;1.00;;;;;;5074430;28;19952;-77
2024/02/29 01:56:19;;;;;;;;;;;1.80;1.00;;;;;;5063556;28;20386;-77
2024/02/29 01:59:07;;;;;;;;;;;1.70;1.00;;;;;;5069069;28;19919;-77
2024/02/29 02:01:33;;;;;;;;;;;1.70;1.00;;;;;;5069976;28;19916;-76
2024/02/29 02:03:59;;;;;;;;;;;1.50;1.00;;;;;;5059404;28;20015;-77
2024/02/29 02:06:36;;;;;;;;;;;1.50;1.00;;;;;;5072586;28;20462;-76
2024/02/29 02:09:13;;;;;;;;;;;1.40;1.00;;;;;;5089157;28;20397;-76
2024/02/29 02:11:38;;;;;;;;;;;1.40;1.00;;;;;;5050867;28;20320;-76
2024/02/29 02:14:12;;;;;;;;;;;1.30;1.00;;;;;;5063132;28;19920;-77
2024/02/29 02:16:38;;;;;;;;;;;1.30;1.00;;;;;;5060105;28;19920;-77
2024/02/29 02:19:12;;;;;;;;;;;1.30;1.00;;;;;;5056039;28;19909;-78
2024/02/29 02:21:38;;;;;;;;;;;1.20;1.00;;;;;;5065619;28;19931;-77
2024/02/29 02:24:04;;;;;;;;;;;1.10;1.00;;;;;;5061551;28;19947;-77
2024/02/29 02:26:30;;;;;;;;;;;1.10;1.00;;;;;;5062440;28;19917;-77
2024/02/29 02:29:01;;;;;;;;;;;1.10;1.00;;;;;;5069333;28;19962;-77
2024/02/29 02:31:29;;;;;;;;;;;1.10;1.00;;;;;;5065624;28;19943;-77
2024/02/29 02:34:18;;;;;;;;;;;1.10;1.00;;;;;;5071275;28;19999;-77
2024/02/29 02:36:49;;;;;;;;;;;1.00;1.00;;;;;;5066746;28;19912;-77
2024/02/29 02:39:30;;;;;;;;;;;1.00;1.00;;;;;;5066471;28;19908;-77
2024/02/29 02:41:56;;;;;;;;;;;1.00;1.00;;;;;;5075830;28;19916;-77
2024/02/29 02:44:30;;;;;;;;;;;0.90;1.00;;;;;;5062562;28;19939;-76
2024/02/29 02:46:56;;;;;;;;;;;0.90;1.00;;;;;;5068121;28;19935;-76
2024/02/29 02:49:22;;;;;;;;;;;0.90;1.00;;;;;;5071249;28;19908;-76
2024/02/29 02:52:07;;;;;;;;;;;0.80;1.00;;;;;;5074271;28;19913;-76
2024/02/29 02:54:33;;;;;;;;;;;0.80;1.00;;;;;;5078648;28;20375;-76
2024/02/29 02:57:06;;;;;;;;;;;0.80;1.00;;;;;;5072899;28;19948;-76
2024/02/29 02:59:36;;;;;;;;;;;0.80;1.00;;;;;;5090094;28;19912;-77
2024/02/29 03:02:06;;;;;;;;;;;0.70;1.00;;;;;;5058605;28;19916;-77
2024/02/29 03:04:32;;;;;;;;;;;0.70;1.00;;;;;;5063893;28;19955;-77
2024/02/29 03:07:30;;;;;;;;;;;0.60;1.00;;;;;;5073489;28;19913;-77
2024/02/29 03:09:56;;;;;;;;;;;0.60;1.00;;;;;;5061432;28;20288;-77
2024/02/29 03:12:42;;;;;;;;;;;0.50;1.00;;;;;;5074914;28;19909;-77
2024/02/29 03:15:18;;;;;;;;;;;0.60;1.00;;;;;;5062760;28;19978;-77
2024/02/29 03:17:48;;;;;;;;;;;0.50;1.00;;;;;;5074875;28;19920;-77
2024/02/29 03:20:36;;;;;;;;;;;0.40;1.00;;;;;;5087915;28;20337;-77
2024/02/29 03:23:03;;;;;;;;;;;0.40;1.00;;;;;;5057690;28;20054;-77
2024/02/29 03:25:30;;;;;;;;;;;0.40;1.00;;;;;;5070845;28;19964;-77
2024/02/29 03:28:06;;;;;;;;;;;0.40;1.00;;;;;;5068030;28;19916;-76
2024/02/29 03:31:06;;;;;;;;;;;0.40;1.00;;;;;;5056850;28;19955;-77
2024/02/29 03:33:32;;;;;;;;;;;0.30;1.00;;;;;;5052254;28;19986;-77
2024/02/29 03:36:07;;;;;;;;;;;0.30;1.00;;;;;;5067913;28;19962;-77
2024/02/29 03:44:43;;;;;;;;;;;0.10;1.00;;;;;;5048212;28;19920;-77
2024/02/29 03:47:13;;;;;;;;;;;0.10;1.00;;;;;;5064339;28;19986;-77
2024/02/29 03:49:38;;;;;;;;;;;0.00;1.00;;;;;;5052242;28;20269;-77
2024/02/29 03:55:07;;;;;;;;;;;0.10;1.00;;;;;;5058662;28;19965;-77
2024/02/29 04:00:43;;;;;;;;;;;0.10;1.00;;;;;;5074312;28;20015;-77
2024/02/29 04:03:12;;;;;;;;;;;0.10;1.00;;;;;;5074122;28;19917;-77
2024/02/29 04:05:38;;;;;;;;;;;0.10;1.00;;;;;;5067916;28;19916;-77
2024/02/29 04:08:18;;;;;;;;;;;0.10;1.00;;;;;;5066810;28;19917;-78
2024/02/29 04:10:49;;;;;;;;;;;0.10;1.00;;;;;;5050206;28;19913;-77
2024/02/29 04:13:30;;;;;;;;;;;0.10;1.00;;;;;;5073415;28;20276;-76
2024/02/29 04:15:56;;;;;;;;;;;0.10;1.00;;;;;;5059503;28;19913;-77
2024/02/29 04:18:42;;;;;;;;;;;0.00;1.00;;;;;;5071188;28;19913;-77
2024/02/29 04:21:12;;;;;;;;;;;0.00;1.00;;;;;;5067464;28;19959;-77
2024/02/29 04:23:38;;;;;;;;;;;0.00;1.00;;;;;;5066448;28;19921;-77
2024/02/29 04:26:04;;;;;;;;;;;0.10;1.00;;;;;;5053549;28;19917;-77
2024/02/29 04:28:29;;;;;;;;;;;0.00;1.00;;;;;;5054909;28;19935;-76
2024/02/29 04:30:55;;;;;;;;;;;0.00;1.00;;;;;;5067555;28;19928;-76
2024/02/29 04:33:42;;;;;;;;;;;0.00;1.00;;;;;;5070031;28;19912;-76
2024/02/29 04:36:13;;;;;;;;;;;0.00;1.00;;;;;;5061983;28;19913;-76
2024/02/29 04:38:38;;;;;;;;;;;0.00;1.00;;;;;;5063214;28;20280;-76
2024/02/29 04:41:04;;;;;;;;;;;0.00;1.00;;;;;;5071273;28;19920;-76
2024/02/29 04:43:29;;;;;;;;;;;0.00;1.00;;;;;;5067208;28;20003;-76
2024/02/29 04:46:01;;;;;;;;;;;0.00;1.00;;;;;;5071004;28;19936;-76
2024/02/29 04:48:30;;;;;;;;;;;0.00;1.00;;;;;;5064443;28;19913;-76
2024/02/29 04:50:56;;;;;;;;;;;-0.10;1.00;;;;;;5072274;28;19925;-76
2024/02/29 04:53:54;;;;;;;;;;;-0.10;1.00;;;;;;5071952;28;19915;-76
2024/02/29 04:56:48;;;;;;;;;;;-0.10;1.00;;;;;;5052409;28;19913;-76
2024/02/29 04:59:18;;;;;;;;;;;-0.10;1.00;;;;;;5073479;28;19912;-76
2024/02/29 05:01:44;;;;;;;;;;;-0.10;1.00;;;;;;5073641;28;19913;-77
2024/02/29 05:04:12;;;;;;;;;;;-0.10;1.00;;;;;;5061395;28;19978;-77
2024/02/29 05:06:39;;;;;;;;;;;-0.10;1.00;;;;;;5057195;28;19908;-76
2024/02/29 05:09:07;;;;;;;;;;;-0.10;1.00;;;;;;5077557;28;19918;-76
2024/02/29 05:11:32;;;;;;;;;;;-0.10;1.00;;;;;;5064192;28;19958;-76
2024/02/29 05:14:18;;;;;;;;;;;-0.10;1.00;;;;;;5077796;28;19912;-76
2024/02/29 05:16:55;;;;;;;;;;;-0.10;1.00;;;;;;5076304;28;19912;-76
2024/02/29 05:19:21;;;;;;;;;;;-0.20;1.00;;;;;;5099066;28;19963;-77
2024/02/29 05:21:51;;;;;;;;;;;-0.20;1.00;;;;;;5059175;28;19909;-77
2024/02/29 05:24:37;;;;;;;;;;;-0.10;1.00;;;;;;5063622;28;19921;-76
2024/02/29 05:27:02;;;;;;;;;;;-0.20;1.00;;;;;;5054265;28;19924;-76
2024/02/29 05:29:48;;;;;;;;;;;-0.10;1.00;;;;;;5077489;28;19912;-77
2024/02/29 05:32:19;;;;;;;;;;;-0.10;1.00;;;;;;5076797;28;19913;-77
2024/02/29 05:34:45;;;;;;;;;;;-0.10;1.00;;;;;;5071352;28;19913;-77
2024/02/29 05:40:48;;;;;;;;;;;-0.20;1.00;;;;;;5057168;28;20390;-78
2024/02/29 05:43:19;;;;;;;;;;;-0.20;1.00;;;;;;5056710;28;19924;-79
2024/02/29 05:45:48;;;;;;;;;;;-0.20;1.00;;;;;;5070737;28;20008;-78
2024/02/29 05:48:25;;;;;;;;;;;-0.20;1.00;;;;;;5053609;28;19951;-77
2024/02/29 05:51:18;;;;;;;;;;;-0.20;1.00;;;;;;5066360;28;19940;-77
2024/02/29 05:54:06;;;;;;;;;;;-0.20;1.00;;;;;;5063807;28;19913;-77
2024/02/29 05:56:49;;;;;;;;;;;-0.30;1.00;;;;;;5066140;28;19912;-78
2024/02/29 05:59:14;;;;;;;;;;;-0.30;1.00;;;;;;5070098;28;19912;-77
2024/02/29 06:01:43;;;;;;;;;;;-0.30;1.00;;;;;;5056226;28;19934;-77
2024/02/29 06:07:11;;;;;;;;;;;-0.30;1.00;;;;;;5072674;28;19963;-77
2024/02/29 06:09:38;;;;;;;;;;;-0.30;1.00;;;;;;5076048;28;19959;-77
2024/02/29 06:12:19;;;;;;;;;;;-0.30;1.00;;;;;;5062752;28;20435;-77
2024/02/29 06:14:52;;;;;;;;;;;-0.30;1.00;;;;;;5069868;28;19995;-77
2024/02/29 06:17:43;;;;;;;;;;;-0.40;1.00;;;;;;5066656;28;19920;-77
2024/02/29 06:20:10;;;;;;;;;;;-0.40;1.00;;;;;;5073746;28;19998;-77
2024/02/29 06:22:36;;;;;;;;;;;-0.40;1.00;;;;;;5097362;28;19943;-77
2024/02/29 06:25:20;;;;;;;;;;;-0.30;1.00;;;;;;5072929;28;20382;-78
2024/02/29 06:27:55;;;;;;;;;;;-0.30;1.00;;;;;;5062323;28;19927;-78
2024/02/29 06:33:24;;;;;;;;;;;-0.30;1.00;;;;;;5056024;28;20395;-78
2024/02/29 06:35:50;;;;;;;;;;;-0.20;1.00;;;;;;5068740;28;19909;-78
2024/02/29 06:38:31;;;;;;;;;;;-0.20;1.00;;;;;;5061988;28;20432;-78
2024/02/29 06:40:57;;;;;;;;;;;-0.20;1.00;;;;;;5046126;28;19921;-77
2024/02/29 06:43:22;;;;;;;;;;;-0.20;1.00;;;;;;5064819;28;19924;-77
2024/02/29 06:45:50;;;;;;;;;;;-0.10;1.00;;;;;;5060568;28;20391;-78
2024/02/29 06:54:21;;;;;;;;;;;0.00;1.00;;;;;;5074747;28;20279;-76
2024/02/29 06:57:01;;;;;;;;;;;0.10;1.00;;;;;;5062094;28;19909;-77
2024/02/29 06:59:26;;;;;;;;;;;0.20;1.00;;;;;;5063302;28;19987;-77
2024/02/29 07:01:55;;;;;;;;;;;0.20;1.00;;;;;;5061676;28;19959;-81
2024/02/29 07:04:21;;;;;;;;;;;0.30;1.00;;;;;;5058408;28;19916;-78
2024/02/29 07:06:46;;;;;;;;;;;0.40;1.00;;;;;;5053599;28;19935;-77
2024/02/29 07:09:12;;;;;;;;;;;0.40;1.00;;;;;;5054197;28;19935;-77
2024/02/29 07:11:49;;;;;;;;;;;0.50;1.00;;;;;;5060963;28;19913;-79
2024/02/29 07:14:16;;;;;;;;;;;0.60;1.00;;;;;;5056761;28;19977;-77
2024/02/29 07:16:42;;;;;;;;;;;0.60;1.00;;;;;;5053652;28;20459;-77
2024/02/29 07:19:08;;;;;;;;;;;0.70;1.00;;;;;;5051327;28;19912;-77
2024/02/29 07:21:53;;;;;;;;;;;0.80;1.00;;;;;;5059701;28;19995;-79
2024/02/29 07:24:31;;;;;;;;;;;0.80;1.00;;;;;;5055556;28;19920;-77
2024/02/29 07:27:01;;;;;;;;;;;0.80;1.00;;;;;;5085501;28;20436;-77
2024/02/29 07:29:27;;;;;;;;;;;0.90;1.00;;;;;;5060213;28;20391;-77
2024/02/29 07:32:01;;;;;;;;;;;1.10;2.40;;;;;;5054518;28;19908;-77
2024/02/29 07:34:37;;;;;;;;;;;1.10;1.90;;;;;;5054119;28;19913;-77
2024/02/29 07:37:07;;;;;;;;;;;1.20;3.10;;;;;;5057953;28;19923;-78
2024/02/29 07:42:37;;;;;;;;;;;1.40;3.40;;;;;;5065176;28;19970;-78
2024/02/29 07:45:07;;;;;;;;;;;1.50;4.30;;;;;;5064130;28;20280;-77
2024/02/29 07:47:49;;;;;;;;;;;1.50;4.50;;;;;;5063909;28;20003;-77
2024/02/29 07:50:19;;;;;;;;;;;1.70;3.50;;;;;;5053989;28;20272;-77
2024/02/29 07:52:45;;;;;;;;;;;1.70;5.80;;;;;;5058603;28;19920;-77
2024/02/29 07:55:14;;;;;;;;;;;1.80;6.90;;;;;;5061508;28;19912;-78
2024/02/29 07:57:49;;;;;;;;;;;2.00;7.30;;;;;;5060798;28;19956;-78
2024/02/29 08:00:15;;;;;;;;;;;2.10;8.00;;;;;;5062573;28;19999;-78
2024/02/29 08:03:01;;;;;;;;;;;2.30;4.20;;;;;;5063645;28;19940;-77
2024/02/29 08:05:32;;;;;;;;;;;2.40;7.20;;;;;;5055551;28;19909;-78
2024/02/29 08:08:31;;;;;;;;;;;2.60;7.70;;;;;;5054039;28;19919;-78
2024/02/29 08:11:01;;;;;;;;;;;2.70;8.40;;;;;;5060074;28;19908;-78
2024/02/29 08:13:37;;;;;;;;;;;2.90;7.30;;;;;;5054307;28;20000;-79
2024/02/29 08:16:07;;;;;;;;;;;3.10;6.60;;;;;;5047705;28;19909;-76
2024/02/29 08:18:38;;;;;;;;;;;3.40;4.00;;;;;;5054168;28;19956;-83
2024/02/29 08:21:07;;;;;;;;;;;3.60;2.90;;;;;;5047588;28;19955;-82
2024/02/29 08:23:32;;;;;;;;;;;3.60;5.20;;;;;;5055981;28;19974;-76
2024/02/29 08:26:31;;;;;;;;;;;3.70;5.30;;;;;;5056371;28;19913;-78
2024/02/29 08:31:59;;;;;;;;;;;4.00;2.00;;;;;;5064499;28;20280;-77
2024/02/29 08:34:44;;;;;;;;;;;4.30;1.00;;;;;;5088378;28;19908;-77
2024/02/29 08:37:10;;;;;;;;;;;4.30;1.00;;;;;;5053421;28;20018;-78
2024/02/29 08:39:43;;;;;;;;;;;4.40;1.00;;;;;;5055431;28;19976;-77
2024/02/29 08:42:25;;;;;;;;;;;4.60;1.00;;;;;;5058619;28;19920;-83
2024/02/29 08:45:01;;;;;;;;;;;4.70;1.00;;;;;;5066258;28;19916;-77
2024/02/29 08:47:27;;;;;;;;;;;4.80;1.00;;;;;;5060872;28;19998;-75
2024/02/29 08:49:55;;;;;;;;;;;4.80;1.00;;;;;;5105317;28;19983;-79
2024/02/29 08:52:26;;;;;;;;;;;4.90;1.00;;;;;;5068201;28;19913;-79
2024/02/29 08:54:51;;;;;;;;;;;5.10;1.00;;;;;;5058839;28;19913;-79
2024/02/29 08:57:18;;;;;;;;;;;5.20;1.00;;;;;;5056970;28;20291;-79
2024/02/29 08:59:43;;;;;;;;;;;5.40;1.00;;;;;;5056669;28;19937;-79
2024/02/29 09:02:09;;;;;;;;;;;5.40;1.00;;;;;;5060072;28;19913;-81
2024/02/29 09:04:43;;;;;;;;;;;5.40;1.00;;;;;;5059032;28;19929;-83
2024/02/29 09:07:25;;;;;;;;;;;5.50;1.00;;;;;;5048898;28;19919;-82
2024/02/29 09:13:03;;;;;;;;;;;5.60;1.00;;;;;;5061943;28;19920;-78
2024/02/29 09:15:49;;;;;;;;;;;5.90;1.00;;;;;;5087038;28;19928;-78
2024/02/29 09:18:20;;;;;;;;;;;7.00;1.00;;;;;;5051469;28;20000;-78
2024/02/29 09:20:49;;;;;;;;;;;7.00;1.00;;;;;;5030807;28;19921;-79
2024/02/29 09:23:15;;;;;;;;;;;7.50;1.00;;;;;;5017438;28;19922;-79
2024/02/29 09:25:43;;;;;;;;;;;7.70;1.00;;;;;;5019238;28;19914;-78
2024/02/29 09:28:19;;;;;;;;;;;7.80;1.00;;;;;;5030073;28;19925;-78
2024/02/29 09:31:13;;;;;;;;;;;7.80;1.00;;;;;;5037934;28;20357;-79
2024/02/29 09:33:39;;;;;;;;;;;8.20;1.00;;;;;;5032802;28;19913;-79
2024/02/29 09:36:25;;;;;;;;;;;8.40;1.00;;;;;;5044626;28;19988;-77
2024/02/29 09:41:55;;;;;;;;;;;8.80;1.00;;;;;;5043737;28;19990;-79
2024/02/29 09:44:43;;;;;;;;;;;8.80;1.00;;;;;;5052984;28;19917;-77
2024/02/29 09:47:09;;;;;;;;;;;9.20;1.00;;;;;;5040005;28;19920;-79
2024/02/29 09:49:59;;;;;;;;;;;9.20;1.00;;;;;;5036403;28;20000;-82
2024/02/29 09:52:38;;;;;;;;;;;9.20;1.00;;;;;;5052796;28;19910;-80
2024/02/29 09:55:37;;;;;;;;;;;9.10;1.00;;;;;;5034696;28;19959;-82
2024/02/29 09:58:08;;;;;;;;;;;9.40;1.00;;;;;;5038050;28;19917;-80
2024/02/29 10:00:43;;;;;;;;;;;9.50;1.00;;;;;;5036044;28;19913;-79
2024/02/29 10:03:11;;;;;;;;;;;9.70;1.00;;;;;;5043237;28;20005;-79
2024/02/29 10:17:48;;;;;;;;;;;9.40;1.00;;;;;;5035462;28;19935;-83
2024/02/29 10:20:21;;;;;;;;;;;9.50;1.00;;;;;;5029615;28;20356;-80
2024/02/29 10:23:13;;;;;;;;;;;9.50;1.00;;;;;;5059529;28;19960;-81
2024/02/29 10:25:43;;;;;;;;;;;9.40;1.00;;;;;;5046049;28;19913;-80
2024/02/29 10:28:31;;;;;;;;;;;9.40;1.00;;;;;;5036438;28;20512;-81
2024/02/29 10:30:58;;;;;;;;;;;9.60;1.00;;;;;;5050890;28;20448;-81
2024/02/29 10:33:27;;;;;;;;;;;9.50;1.00;;;;;;5028527;28;19916;-81
2024/02/29 10:36:08;;;;;;;;;;;9.50;1.00;;;;;;5040961;28;19910;-80
2024/02/29 10:39:08;;;;;;;;;;;9.30;1.00;;;;;;5055530;28;20378;-81
2024/02/29 10:41:48;;;;;;;;;;;9.20;1.00;;;;;;5066092;28;19912;-81
2024/02/29 10:44:37;;;;;;;;;;;9.30;1.00;;;;;;5041637;28;19917;-81
2024/02/29 10:47:07;;;;;;;;;;;9.40;1.00;;;;;;5042949;28;19909;-81
2024/02/29 10:49:54;;;;;;;;;;;9.50;1.00;;;;;;5024212;28;19944;-81
2024/02/29 10:52:24;;;;;;;;;;;9.30;1.00;;;;;;5039809;28;20279;-81
2024/02/29 10:55:11;;;;;;;;;;;9.40;1.00;;;;;;5037788;28;20007;-81
2024/02/29 10:58:01;;;;;;;;;;;9.40;1.00;;;;;;5030780;28;19916;-82
2024/02/29 11:00:55;;;;;;;;;;;9.30;1.00;;;;;;5034074;28;19920;-81
2024/02/29 11:03:31;;;;;;;;;;;9.50;1.00;;;;;;5035477;28;19917;-80
2024/02/29 11:06:07;;;;;;;;;;;9.90;1.00;;;;;;5043862;28;19955;-80
2024/02/29 11:08:35;;;;;;;;;;;10.00;1.00;;;;;;5029941;28;19913;-81
2024/02/29 11:11:02;;;;;;;;;;;10.00;1.00;;;;;;5021166;28;19920;-80
2024/02/29 11:13:32;;;;;;;;;;;10.20;1.00;;;;;;5041923;28;19913;-81
2024/02/29 11:19:17;;;;;;;;;;;10.20;1.00;;;;;;5025111;28;19921;-81
2024/02/29 11:21:43;;;;;;;;;;;10.40;1.00;;;;;;5048217;28;19916;-78
2024/02/29 11:24:20;;;;;;;;;;;10.30;1.00;;;;;;5036655;28;19925;-78
2024/02/29 11:26:53;;;;;;;;;;;10.20;1.00;;;;;;5051816;28;19995;-77
2024/02/29 11:29:19;;;;;;;;;;;10.50;1.00;;;;;;5047907;28;19955;-83
2024/02/29 11:31:57;;;;;;;;;;;10.50;1.00;;;;;;5069985;28;19916;-79
2024/02/29 11:37:28;;;;;;;;;;;10.60;1.00;;;;;;5040701;28;19919;-82
2024/02/29 11:43:01;;;;;;;;;;;10.60;1.00;;;;;;5036971;28;20396;-79
2024/02/29 11:45:38;;;;;;;;;;;10.60;1.00;;;;;;5035525;28;19952;-79
2024/02/29 11:48:04;;;;;;;;;;;10.80;1.00;;;;;;5029087;28;19988;-80
2024/02/29 11:50:56;;;;;;;;;;;10.80;1.00;;;;;;5034296;28;19948;-79
2024/02/29 11:53:22;;;;;;;;;;;10.90;1.00;;;;;;5031590;28;19956;-79
2024/02/29 11:58:56;;;;;;;;;;;10.80;1.00;;;;;;5028954;28;19935;-79
2024/02/29 12:01:44;;;;;;;;;;;10.70;1.00;;;;;;5034361;28;19916;-80
2024/02/29 12:04:14;;;;;;;;;;;10.80;1.00;;;;;;5043407;28;20026;-80
2024/02/29 12:06:45;;;;;;;;;;;11.00;1.00;;;;;;5045553;28;19910;-78
2024/02/29 12:09:14;;;;;;;;;;;10.90;1.00;;;;;;5051453;28;19948;-77
2024/02/29 12:15:14;;;;;;;;;;;11.10;1.00;;;;;;5042329;28;19970;-77
2024/02/29 12:17:46;;;;;;;;;;;11.20;1.00;;;;;;5040613;28;19909;-77
2024/02/29 12:20:16;;;;;;;;;;;11.20;1.00;;;;;;5019633;28;19960;-78
2024/02/29 12:25:47;;;;;;;;;;;11.30;1.00;;;;;;5039918;28;20115;-77
2024/02/29 12:28:32;;;;;;;;;;;11.40;1.00;;;;;;5053695;28;19916;-78
2024/02/29 12:31:04;;;;;;;;;;;11.50;1.00;;;;;;5033669;28;19913;-79
2024/02/29 12:36:33;;;;;;;;;;;11.60;1.00;;;;;;5046945;28;19931;-78
2024/02/29 12:39:02;;;;;;;;;;;11.50;1.00;;;;;;5022365;28;20344;-77
2024/02/29 12:41:32;;;;;;;;;;;11.60;1.00;;;;;;5053498;28;19913;-77
2024/02/29 12:44:09;;;;;;;;;;;11.70;1.00;;;;;;5039617;28;19924;-77
2024/02/29 12:46:44;;;;;;;;;;;11.80;1.00;;;;;;5050826;28;19925;-77
2024/02/29 12:52:14;;;;;;;;;;;12.20;1.00;;;;;;5038741;28;20015;-78
2024/02/29 12:54:56;;;;;;;;;;;12.20;1.00;;;;;;5035108;28;19917;-80
2024/02/29 12:57:26;;;;;;;;;;;12.00;1.00;;;;;;5035867;28;19948;-80
2024/02/29 12:59:51;;;;;;;;;;;12.00;1.00;;;;;;5035673;28;19963;-80
2024/02/29 13:02:38;;;;;;;;;;;12.10;1.00;;;;;;5036903;28;19913;-81
2024/02/29 13:11:09;;;;;;;;;;;12.20;1.00;;;;;;5038716;28;19920;-77
2024/02/29 13:16:38;;;;;;;;;;;12.20;1.00;;;;;;5032991;28;20383;-78
2024/02/29 13:25:38;;;;;;;;;;;11.80;1.00;;;;;;5033333;28;19928;-79
2024/02/29 13:28:26;;;;;;;;;;;12.00;1.00;;;;;;5022652;28;19986;-80
2024/02/29 13:34:03;;;;;;;;;;;12.30;1.00;;;;;;5034295;28;20096;-78
2024/02/29 13:39:38;;;;;;;;;;;12.40;1.00;;;;;;5037520;28;20338;-78
2024/02/29 13:42:32;;;;;;;;;;;12.40;1.00;;;;;;5038678;28;19913;-79
2024/02/29 13:45:02;;;;;;;;;;;12.40;1.00;;;;;;5034973;28;19917;-77
2024/02/29 13:47:32;;;;;;;;;;;12.40;1.00;;;;;;5036532;28;19920;-78
2024/02/29 13:50:08;;;;;;;;;;;12.50;1.00;;;;;;5038548;28;19919;-77
2024/02/29 13:52:34;;;;;;;;;;;12.60;1.00;;;;;;5032452;28;19909;-78
2024/02/29 13:55:14;;;;;;;;;;;12.60;1.00;;;;;;5036655;28;20369;-76
2024/02/29 14:00:50;;;;;;;;;;;12.90;1.00;;;;;;5038210;28;19920;-76
2024/02/29 14:03:20;;;;;;;;;;;12.90;1.00;;;;;;5035511;28;20474;-76
2024/02/29 14:05:52;;;;;;;;;;;12.90;1.00;;;;;;5036155;28;19909;-75
2024/02/29 14:11:50;;;;;;;;;;;13.00;1.00;;;;;;5036360;28;20292;-77
2024/02/29 14:14:32;;;;;;;;;;;13.00;1.00;;;;;;5035610;28;19917;-77
2024/02/29 14:17:32;;;;;;;;;;;13.00;1.00;;;;;;5034915;28;19920;-78
2024/02/29 14:20:02;;;;;;;;;;;13.00;1.00;;;;;;5035509;28;19920;-80
2024/02/29 14:25:27;;;;;;;;;;;13.10;1.00;;;;;;5030703;28;19919;-79
2024/02/29 14:27:53;;;;;;;;;;;13.10;1.00;;;;;;5030006;28;19987;-77
2024/02/29 14:33:56;;;;;;;;;;;13.30;1.00;;;;;;5032911;28;19967;-78
2024/02/29 14:39:26;;;;;;;;;;;13.40;1.00;;;;;;5030975;28;19920;-76
2024/02/29 14:41:52;;;;;;;;;;;13.40;1.00;;;;;;5021868;28;19917;-86
2024/02/29 15:02:36;;;;;;;;;;;13.50;1.00;;;;;;5037207;28;20279;-89
2024/02/29 15:05:06;;;;;;;;;;;13.50;1.00;;;;;;5022340;28;19917;-92
2024/02/29 15:19:44;;;;;;;;;;;13.10;1.00;;;;;;5033861;28;19931;-85
2024/02/29 15:25:28;;;;;;;;;;;13.00;1.00;;;;;;5036535;28;19975;-85
2024/02/29 15:31:14;;;;;;;;;;;13.00;1.00;;;;;;5017201;28;19971;-86
2024/02/29 15:36:50;;;;;;;;;;;13.10;1.00;;;;;;5030773;28;19915;-76
2024/02/29 15:42:19;;;;;;;;;;;13.30;1.00;;;;;;5027860;28;19920;-77
2024/02/29 15:44:56;;;;;;;;;;;13.70;1.00;;;;;;5034398;28;20004;-79
2024/02/29 15:47:44;;;;;;;;;;;13.30;1.00;;;;;;5031877;28;19913;-76
2024/02/29 15:50:38;;;;;;;;;;;13.40;1.00;;;;;;5042830;28;19921;-79
2024/02/29 15:59:32;;;;;;;;;;;13.90;1.00;;;;;;5014589;28;20036;-78
2024/02/29 16:05:26;;;;;;;;;;;14.90;1.00;;;;;;5048644;28;19987;-78
2024/02/29 16:14:02;;;;;;;;;;;15.50;1.00;;;;;;5044062;28;19920;-76
2024/02/29 16:16:44;;;;;;;;;;;15.60;1.00;;;;;;5036194;28;19916;-76
2024/02/29 16:19:38;;;;;;;;;;;15.70;1.00;;;;;;5054050;28;19919;-76
2024/02/29 16:22:08;;;;;;;;;;;15.70;1.00;;;;;;5043942;28;19932;-76
2024/02/29 16:24:56;;;;;;;;;;;15.60;1.00;;;;;;5040915;28;19917;-78
2024/02/29 16:27:32;;;;;;;;;;;15.60;1.00;;;;;;5053945;28;19916;-78
2024/02/29 16:29:58;;;;;;;;;;;15.40;1.00;;;;;;5005405;28;19921;-79
2024/02/29 16:32:56;;;;;;;;;;;15.30;1.00;;;;;;5024668;28;19920;-79
2024/02/29 16:35:22;;;;;;;;;;;15.00;1.00;;;;;;5031779;28;19910;-78
2024/02/29 16:38:15;;;;;;;;;;;14.70;1.00;;;;;;5012192;28;20369;-78
2024/02/29 16:40:46;;;;;;;;;;;14.20;1.00;;;;;;5026937;28;19916;-76
2024/02/29 16:43:21;;;;;;;;;;;14.10;1.00;;;;;;5029553;28;19964;-75
2024/02/29 16:45:48;;;;;;;;;;;13.60;1.00;;;;;;5029018;28;20469;-75
2024/02/29 16:48:14;;;;;;;;;;;13.50;1.00;;;;;;5038037;28;20380;-75
2024/02/29 16:51:08;;;;;;;;;;;13.20;1.00;;;;;;5028851;28;19914;-75
2024/02/29 16:53:38;;;;;;;;;;;12.90;1.00;;;;;;5033834;28;19920;-75
2024/02/29 16:59:06;;;;;;;;;;;12.20;1.00;;;;;;5027267;28;20384;-78
2024/02/29 17:01:50;;;;;;;;;;;11.90;1.00;;;;;;5036335;28;19952;-79
2024/02/29 17:07:19;;;;;;;;;;;11.30;1.00;;;;;;5030755;28;19920;-78
2024/02/29 17:12:47;;;;;;;;;;;10.80;1.00;;;;;;5037552;28;19949;-76
2024/02/29 17:18:16;;;;;;;;;;;10.30;1.00;;;;;;5037157;28;19916;-76
2024/02/29 17:23:44;;;;;;;;;;;9.80;1.00;;;;;;5037407;28;19924;-75
2024/02/29 17:35:20;;;;;;;;;;;8.90;1.00;;;;;;5017137;28;20012;-79
2024/02/29 17:38:26;;;;;;;;;;;8.70;1.00;;;;;;5022121;28;19914;-79
2024/02/29 17:40:56;;;;;;;;;;;8.50;1.00;;;;;;5055148;28;19913;-79
2024/02/29 17:43:22;;;;;;;;;;;8.40;1.00;;;;;;5036714;28;19963;-79
2024/02/29 17:46:20;;;;;;;;;;;8.10;1.00;;;;;;5051637;28;19940;-78
2024/02/29 17:58:26;;;;;;;;;;;7.60;1.00;;;;;;5043874;28;19998;-77
2024/02/29 18:00:52;;;;;;;;;;;7.50;1.00;;;;;;5036806;28;20004;-74
2024/02/29 18:03:40;;;;;;;;;;;7.50;1.00;;;;;;5048545;28;19948;-77
2024/02/29 18:06:08;;;;;;;;;;;7.40;1.00;;;;;;5033381;28;20364;-74
2024/02/29 18:08:34;;;;;;;;;;;7.30;1.00;;;;;;5044540;28;19958;-74
2024/02/29 18:11:14;;;;;;;;;;;7.20;1.00;;;;;;5038793;28;19913;-75
2024/02/29 18:13:40;;;;;;;;;;;7.10;1.00;;;;;;5049220;28;19909;-74
2024/02/29 18:16:08;;;;;;;;;;;7.00;1.00;;;;;;5043451;28;19916;-74
2024/02/29 18:18:38;;;;;;;;;;;7.00;1.00;;;;;;5033251;28;19916;-74
2024/02/29 18:24:14;;;;;;;;;;;6.80;1.00;;;;;;5037679;28;19943;-76
2024/02/29 18:26:46;;;;;;;;;;;6.70;1.00;;;;;;5041740;28;19924;-77
2024/02/29 18:32:15;;;;;;;;;;;6.50;1.00;;;;;;5017452;28;19979;-79
2024/02/29 18:34:40;;;;;;;;;;;6.50;1.00;;;;;;5032927;28;19916;-80
2024/02/29 18:40:11;;;;;;;;;;;6.40;1.00;;;;;;5030922;28;20051;-79
2024/02/29 18:51:46;;;;;;;;;;;6.10;1.00;;;;;;5034184;28;19920;-78
2024/02/29 18:57:15;;;;;;;;;;;5.90;1.00;;;;;;5022792;28;19920;-77
2024/02/29 18:59:56;;;;;;;;;;;5.80;1.00;;;;;;5032223;28;20320;-76
2024/02/29 19:02:26;;;;;;;;;;;5.80;1.00;;;;;;5030981;28;19922;-76
2024/02/29 19:04:52;;;;;;;;;;;5.80;1.00;;;;;;5039148;28;20007;-76
2024/02/29 19:07:44;;;;;;;;;;;5.70;1.00;;;;;;5034663;28;19957;-76
2024/02/29 19:10:14;;;;;;;;;;;5.70;1.00;;;;;;5039653;28;19959;-76
2024/02/29 19:12:56;;;;;;;;;;;5.60;1.00;;;;;;5030163;28;19909;-75
2024/02/29 19:15:23;;;;;;;;;;;5.60;1.00;;;;;;5031560;28;19920;-83
2024/02/29 19:20:51;;;;;;;;;;;5.50;1.00;;;;;;5031244;28;19920;-81
2024/02/29 19:29:23;;;;;;;;;;;5.30;1.00;;;;;;5034872;28;19916;-80
2024/02/29 19:37:56;;;;;;;;;;;5.20;1.00;;;;;;5027120;28;19924;-76
2024/02/29 19:40:32;;;;;;;;;;;5.10;1.00;;;;;;5034853;28;19956;-76